sensor_id;sensor_type;location;lat;lon;timestamp;temperature;humidity
46041;DHT22;31779;49.124;19.190;2022-07-23T00:01:11;16.60;99.90
46041;DHT22;31779;49.124;19.190;2022-07-23T00:03:39;16.50;99.90
46041;DHT22;31779;49.124;19.190;2022-07-23T00:06:07;16.50;99.90
46041;DHT22;31779;49.124;19.190;2022-07-23T00:08:36;16.40;99.90
46041;DHT22;31779;49.124;19.190;2022-07-23T00:11:04;16.40;99.90
46041;DHT22;31779;49.124;19.190;2022-07-23T00:13:31;16.40;99.90
46041;DHT22;31779;49.124;19.190;2022-07-23T00:15:59;16.40;99.90
46041;DHT22;31779;49.124;19.190;2022-07-23T00:18:27;16.30;99.90
46041;DHT22;31779;49.124;19.190;2022-07-23T00:20:57;16.30;99.90
46041;DHT22;31779;49.124;19.190;2022-07-23T00:23:25;16.30;99.90
46041;DHT22;31779;49.124;19.190;2022-07-23T00:25:53;16.30;99.90
46041;DHT22;31779;49.124;19.190;2022-07-23T00:28:21;16.30;99.90
46041;DHT22;31779;49.124;19.190;2022-07-23T00:30:49;16.30;99.90
46041;DHT22;31779;49.124;19.190;2022-07-23T00:33:17;16.30;99.90
46041;DHT22;31779;49.124;19.190;2022-07-23T00:35:44;16.30;99.90
46041;DHT22;31779;49.124;19.190;2022-07-23T00:38:13;16.30;99.90
46041;DHT22;31779;49.124;19.190;2022-07-23T00:40:41;16.30;99.90
46041;DHT22;31779;49.124;19.190;2022-07-23T00:43:09;16.20;99.90
46041;DHT22;31779;49.124;19.190;2022-07-23T00:45:37;16.10;99.90
46041;DHT22;31779;49.124;19.190;2022-07-23T00:48:06;16.10;99.90
46041;DHT22;31779;49.124;19.190;2022-07-23T00:50:33;16.20;99.90
46041;DHT22;31779;49.124;19.190;2022-07-23T00:53:01;16.20;99.90
46041;DHT22;31779;49.124;19.190;2022-07-23T00:55:29;16.10;99.90
46041;DHT22;31779;49.124;19.190;2022-07-23T00:57:57;16.10;99.90
46041;DHT22;31779;49.124;19.190;2022-07-23T01:00:26;16.10;99.90
46041;DHT22;31779;49.124;19.190;2022-07-23T01:02:54;16.10;99.90
46041;DHT22;31779;49.124;19.190;2022-07-23T01:05:22;16.10;99.90
46041;DHT22;31779;49.124;19.190;2022-07-23T01:07:51;16.00;99.90
46041;DHT22;31779;49.124;19.190;2022-07-23T01:10:23;16.10;99.90
46041;DHT22;31779;49.124;19.190;2022-07-23T01:13:09;16.10;99.90
46041;DHT22;31779;49.124;19.190;2022-07-23T01:15:38;16.00;99.90
46041;DHT22;31779;49.124;19.190;2022-07-23T01:18:08;16.00;99.90
46041;DHT22;31779;49.124;19.190;2022-07-23T01:20:37;15.90;99.90
46041;DHT22;31779;49.124;19.190;2022-07-23T01:23:07;15.90;99.90
46041;DHT22;31779;49.124;19.190;2022-07-23T01:25:36;16.00;99.90
46041;DHT22;31779;49.124;19.190;2022-07-23T01:28:05;16.00;99.90
46041;DHT22;31779;49.124;19.190;2022-07-23T01:30:33;15.90;99.90
46041;DHT22;31779;49.124;19.190;2022-07-23T01:33:05;15.90;99.90
46041;DHT22;31779;49.124;19.190;2022-07-23T01:35:33;15.90;99.90
46041;DHT22;31779;49.124;19.190;2022-07-23T01:38:04;15.90;99.90
46041;DHT22;31779;49.124;19.190;2022-07-23T01:40:33;15.90;99.90
46041;DHT22;31779;49.124;19.190;2022-07-23T01:43:01;15.80;99.90
46041;DHT22;31779;49.124;19.190;2022-07-23T01:45:31;15.80;99.90
46041;DHT22;31779;49.124;19.190;2022-07-23T01:48:00;15.80;99.90
46041;DHT22;31779;49.124;19.190;2022-07-23T01:50:34;15.80;99.90
46041;DHT22;31779;49.124;19.190;2022-07-23T01:53:04;15.80;99.90
46041;DHT22;31779;49.124;19.190;2022-07-23T01:55:37;15.80;99.90
46041;DHT22;31779;49.124;19.190;2022-07-23T01:58:06;15.80;99.90
46041;DHT22;31779;49.124;19.190;2022-07-23T02:00:34;15.80;99.90
46041;DHT22;31779;49.124;19.190;2022-07-23T02:03:03;15.80;99.90
46041;DHT22;31779;49.124;19.190;2022-07-23T02:05:31;15.70;99.90
46041;DHT22;31779;49.124;19.190;2022-07-23T02:08:02;15.70;99.90
46041;DHT22;31779;49.124;19.190;2022-07-23T02:10:34;15.80;99.90
46041;DHT22;31779;49.124;19.190;2022-07-23T02:13:03;15.70;99.90
46041;DHT22;31779;49.124;19.190;2022-07-23T02:15:32;15.70;99.90
46041;DHT22;31779;49.124;19.190;2022-07-23T02:18:00;15.80;99.90
46041;DHT22;31779;49.124;19.190;2022-07-23T02:20:28;15.70;99.90
46041;DHT22;31779;49.124;19.190;2022-07-23T02:22:56;15.70;99.90
46041;DHT22;31779;49.124;19.190;2022-07-23T02:25:23;15.70;99.90
46041;DHT22;31779;49.124;19.190;2022-07-23T02:27:56;15.70;99.90
46041;DHT22;31779;49.124;19.190;2022-07-23T02:30:24;15.70;99.90
46041;DHT22;31779;49.124;19.190;2022-07-23T02:32:52;15.70;99.90
46041;DHT22;31779;49.124;19.190;2022-07-23T02:35:20;15.80;99.90
46041;DHT22;31779;49.124;19.190;2022-07-23T02:37:48;15.70;99.90
46041;DHT22;31779;49.124;19.190;2022-07-23T02:40:18;15.70;99.90
46041;DHT22;31779;49.124;19.190;2022-07-23T02:42:47;15.70;99.90
46041;DHT22;31779;49.124;19.190;2022-07-23T02:45:15;15.70;99.90
46041;DHT22;31779;49.124;19.190;2022-07-23T02:47:43;15.70;99.90
46041;DHT22;31779;49.124;19.190;2022-07-23T02:50:10;15.60;99.90
46041;DHT22;31779;49.124;19.190;2022-07-23T02:52:39;15.60;99.90
46041;DHT22;31779;49.124;19.190;2022-07-23T02:55:08;15.50;99.90
46041;DHT22;31779;49.124;19.190;2022-07-23T02:57:36;15.50;99.90
46041;DHT22;31779;49.124;19.190;2022-07-23T03:00:05;15.50;99.90
46041;DHT22;31779;49.124;19.190;2022-07-23T03:02:33;15.60;99.90
46041;DHT22;31779;49.124;19.190;2022-07-23T03:05:01;15.50;99.90
46041;DHT22;31779;49.124;19.190;2022-07-23T03:07:30;15.60;99.90
46041;DHT22;31779;49.124;19.190;2022-07-23T03:09:58;15.60;99.90
46041;DHT22;31779;49.124;19.190;2022-07-23T03:12:26;15.50;99.90
46041;DHT22;31779;49.124;19.190;2022-07-23T03:14:53;15.50;99.90
46041;DHT22;31779;49.124;19.190;2022-07-23T03:17:21;15.60;99.90
46041;DHT22;31779;49.124;19.190;2022-07-23T03:19:49;15.60;99.90
46041;DHT22;31779;49.124;19.190;2022-07-23T03:22:17;15.70;99.90
46041;DHT22;31779;49.124;19.190;2022-07-23T03:24:45;15.80;99.90
46041;DHT22;31779;49.124;19.190;2022-07-23T03:27:30;15.90;99.90
46041;DHT22;31779;49.124;19.190;2022-07-23T03:29:59;15.90;99.90
46041;DHT22;31779;49.124;19.190;2022-07-23T03:32:27;15.90;99.90
46041;DHT22;31779;49.124;19.190;2022-07-23T03:34:55;15.90;99.90
46041;DHT22;31779;49.124;19.190;2022-07-23T03:37:24;16.00;99.90
46041;DHT22;31779;49.124;19.190;2022-07-23T03:39:52;16.10;99.90
46041;DHT22;31779;49.124;19.190;2022-07-23T03:42:20;16.10;99.90
46041;DHT22;31779;49.124;19.190;2022-07-23T03:44:48;16.20;99.90
46041;DHT22;31779;49.124;19.190;2022-07-23T03:47:16;16.30;99.90
46041;DHT22;31779;49.124;19.190;2022-07-23T03:49:44;16.50;99.90
46041;DHT22;31779;49.124;19.190;2022-07-23T03:52:12;16.60;99.90
46041;DHT22;31779;49.124;19.190;2022-07-23T03:54:40;16.70;99.90
46041;DHT22;31779;49.124;19.190;2022-07-23T03:57:09;16.70;99.90
46041;DHT22;31779;49.124;19.190;2022-07-23T03:59:37;16.80;99.90
46041;DHT22;31779;49.124;19.190;2022-07-23T04:02:04;16.90;99.90
46041;DHT22;31779;49.124;19.190;2022-07-23T04:04:32;16.90;99.90
46041;DHT22;31779;49.124;19.190;2022-07-23T04:07:01;17.00;99.90
46041;DHT22;31779;49.124;19.190;2022-07-23T04:09:31;17.10;99.90
46041;DHT22;31779;49.124;19.190;2022-07-23T04:12:00;17.30;99.90
46041;DHT22;31779;49.124;19.190;2022-07-23T04:14:29;17.40;99.90
46041;DHT22;31779;49.124;19.190;2022-07-23T04:16:57;17.50;99.90
46041;DHT22;31779;49.124;19.190;2022-07-23T04:19:26;17.60;99.90
46041;DHT22;31779;49.124;19.190;2022-07-23T04:22:01;17.60;99.90
46041;DHT22;31779;49.124;19.190;2022-07-23T04:24:30;17.80;99.90
46041;DHT22;31779;49.124;19.190;2022-07-23T04:26:58;17.90;99.90
46041;DHT22;31779;49.124;19.190;2022-07-23T04:29:26;18.00;99.90
46041;DHT22;31779;49.124;19.190;2022-07-23T04:31:54;18.10;99.90
46041;DHT22;31779;49.124;19.190;2022-07-23T04:34:23;18.20;99.90
46041;DHT22;31779;49.124;19.190;2022-07-23T04:36:55;18.40;99.90
46041;DHT22;31779;49.124;19.190;2022-07-23T04:39:22;18.50;99.90
46041;DHT22;31779;49.124;19.190;2022-07-23T04:41:50;18.60;99.90
46041;DHT22;31779;49.124;19.190;2022-07-23T04:44:19;18.70;99.90
46041;DHT22;31779;49.124;19.190;2022-07-23T04:46:48;18.90;99.90
46041;DHT22;31779;49.124;19.190;2022-07-23T04:49:17;19.00;99.90
46041;DHT22;31779;49.124;19.190;2022-07-23T04:51:46;19.10;99.90
46041;DHT22;31779;49.124;19.190;2022-07-23T04:54:15;19.20;99.90
46041;DHT22;31779;49.124;19.190;2022-07-23T04:56:43;19.30;99.90
46041;DHT22;31779;49.124;19.190;2022-07-23T04:59:11;19.30;99.90
46041;DHT22;31779;49.124;19.190;2022-07-23T05:01:41;19.50;99.90
46041;DHT22;31779;49.124;19.190;2022-07-23T05:04:10;19.50;99.90
46041;DHT22;31779;49.124;19.190;2022-07-23T05:06:39;19.80;99.90
46041;DHT22;31779;49.124;19.190;2022-07-23T05:09:07;19.80;99.90
46041;DHT22;31779;49.124;19.190;2022-07-23T05:11:35;20.10;99.90
46041;DHT22;31779;49.124;19.190;2022-07-23T05:14:03;20.20;99.90
46041;DHT22;31779;49.124;19.190;2022-07-23T05:16:31;20.40;99.90
46041;DHT22;31779;49.124;19.190;2022-07-23T05:19:06;20.70;99.90
46041;DHT22;31779;49.124;19.190;2022-07-23T05:21:35;20.70;99.90
46041;DHT22;31779;49.124;19.190;2022-07-23T05:24:03;20.70;99.90
46041;DHT22;31779;49.124;19.190;2022-07-23T05:26:31;20.80;99.90
46041;DHT22;31779;49.124;19.190;2022-07-23T05:28:59;21.00;99.90
46041;DHT22;31779;49.124;19.190;2022-07-23T05:31:29;20.90;99.90
46041;DHT22;31779;49.124;19.190;2022-07-23T05:33:57;20.90;99.90
46041;DHT22;31779;49.124;19.190;2022-07-23T05:36:26;20.70;99.90
46041;DHT22;31779;49.124;19.190;2022-07-23T05:38:56;20.70;99.90
46041;DHT22;31779;49.124;19.190;2022-07-23T05:41:25;20.50;99.90
46041;DHT22;31779;49.124;19.190;2022-07-23T05:43:53;20.40;99.90
46041;DHT22;31779;49.124;19.190;2022-07-23T05:46:22;20.20;99.90
46041;DHT22;31779;49.124;19.190;2022-07-23T05:48:55;20.30;99.90
46041;DHT22;31779;49.124;19.190;2022-07-23T05:51:52;20.40;99.90
46041;DHT22;31779;49.124;19.190;2022-07-23T05:54:34;20.60;99.90
46041;DHT22;31779;49.124;19.190;2022-07-23T05:57:03;20.80;99.90
46041;DHT22;31779;49.124;19.190;2022-07-23T05:59:31;20.80;99.90
46041;DHT22;31779;49.124;19.190;2022-07-23T06:01:59;20.90;99.90
46041;DHT22;31779;49.124;19.190;2022-07-23T06:04:28;21.10;99.90
46041;DHT22;31779;49.124;19.190;2022-07-23T06:07:25;21.20;99.90
46041;DHT22;31779;49.124;19.190;2022-07-23T06:09:54;21.40;99.90
46041;DHT22;31779;49.124;19.190;2022-07-23T06:12:23;21.50;99.90
46041;DHT22;31779;49.124;19.190;2022-07-23T06:14:52;21.60;99.90
46041;DHT22;31779;49.124;19.190;2022-07-23T06:17:20;21.80;99.90
46041;DHT22;31779;49.124;19.190;2022-07-23T06:19:49;22.20;99.90
46041;DHT22;31779;49.124;19.190;2022-07-23T06:22:19;22.30;99.90
46041;DHT22;31779;49.124;19.190;2022-07-23T06:24:49;22.40;99.90
46041;DHT22;31779;49.124;19.190;2022-07-23T06:27:17;22.70;99.90
46041;DHT22;31779;49.124;19.190;2022-07-23T06:29:52;23.00;99.90
46041;DHT22;31779;49.124;19.190;2022-07-23T06:32:20;23.30;99.90
46041;DHT22;31779;49.124;19.190;2022-07-23T06:34:48;23.50;99.90
46041;DHT22;31779;49.124;19.190;2022-07-23T06:37:16;23.70;99.90
46041;DHT22;31779;49.124;19.190;2022-07-23T06:39:46;24.00;99.90
46041;DHT22;31779;49.124;19.190;2022-07-23T06:42:14;24.20;99.90
46041;DHT22;31779;49.124;19.190;2022-07-23T06:44:44;24.20;99.90
46041;DHT22;31779;49.124;19.190;2022-07-23T06:47:15;24.60;99.90
46041;DHT22;31779;49.124;19.190;2022-07-23T06:49:45;25.10;99.90
46041;DHT22;31779;49.124;19.190;2022-07-23T06:52:13;25.80;99.90
46041;DHT22;31779;49.124;19.190;2022-07-23T06:54:41;25.80;98.90
46041;DHT22;31779;49.124;19.190;2022-07-23T06:57:09;25.80;99.90
46041;DHT22;31779;49.124;19.190;2022-07-23T06:59:37;25.20;99.90
46041;DHT22;31779;49.124;19.190;2022-07-23T07:02:09;25.10;99.90
46041;DHT22;31779;49.124;19.190;2022-07-23T07:04:37;24.80;99.90
46041;DHT22;31779;49.124;19.190;2022-07-23T07:07:05;24.90;99.20
46041;DHT22;31779;49.124;19.190;2022-07-23T07:09:32;24.60;99.10
46041;DHT22;31779;49.124;19.190;2022-07-23T07:12:00;24.80;99.40
46041;DHT22;31779;49.124;19.190;2022-07-23T07:14:29;25.40;98.80
46041;DHT22;31779;49.124;19.190;2022-07-23T07:16:56;25.70;96.90
46041;DHT22;31779;49.124;19.190;2022-07-23T07:19:24;25.40;99.40
46041;DHT22;31779;49.124;19.190;2022-07-23T07:21:52;25.10;99.90
46041;DHT22;31779;49.124;19.190;2022-07-23T07:24:20;25.20;99.90
46041;DHT22;31779;49.124;19.190;2022-07-23T07:26:51;25.30;99.90
46041;DHT22;31779;49.124;19.190;2022-07-23T07:29:18;24.80;99.70
46041;DHT22;31779;49.124;19.190;2022-07-23T07:31:46;24.80;99.90
46041;DHT22;31779;49.124;19.190;2022-07-23T07:34:14;25.00;99.90
46041;DHT22;31779;49.124;19.190;2022-07-23T07:36:43;26.00;99.90
46041;DHT22;31779;49.124;19.190;2022-07-23T07:39:11;26.30;98.60
46041;DHT22;31779;49.124;19.190;2022-07-23T07:41:40;26.10;98.20
46041;DHT22;31779;49.124;19.190;2022-07-23T07:44:08;26.10;97.20
46041;DHT22;31779;49.124;19.190;2022-07-23T07:46:36;26.70;97.70
46041;DHT22;31779;49.124;19.190;2022-07-23T07:49:04;27.20;97.20
46041;DHT22;31779;49.124;19.190;2022-07-23T07:51:33;27.60;99.20
46041;DHT22;31779;49.124;19.190;2022-07-23T07:54:01;27.40;95.70
46041;DHT22;31779;49.124;19.190;2022-07-23T07:56:30;27.80;97.00
46041;DHT22;31779;49.124;19.190;2022-07-23T07:58:59;27.80;94.70
46041;DHT22;31779;49.124;19.190;2022-07-23T08:01:28;28.10;95.50
46041;DHT22;31779;49.124;19.190;2022-07-23T08:03:56;28.20;92.90
46041;DHT22;31779;49.124;19.190;2022-07-23T08:06:25;28.60;95.30
46041;DHT22;31779;49.124;19.190;2022-07-23T08:08:53;29.00;92.20
46041;DHT22;31779;49.124;19.190;2022-07-23T08:11:22;28.80;94.40
46041;DHT22;31779;49.124;19.190;2022-07-23T08:13:50;28.90;91.20
46041;DHT22;31779;49.124;19.190;2022-07-23T08:16:18;29.60;92.20
46041;DHT22;31779;49.124;19.190;2022-07-23T08:18:46;29.60;93.20
46041;DHT22;31779;49.124;19.190;2022-07-23T08:21:14;30.50;83.00
46041;DHT22;31779;49.124;19.190;2022-07-23T08:23:42;31.50;80.60
46041;DHT22;31779;49.124;19.190;2022-07-23T08:26:10;32.10;79.40
46041;DHT22;31779;49.124;19.190;2022-07-23T08:28:38;32.40;71.30
46041;DHT22;31779;49.124;19.190;2022-07-23T08:31:06;33.40;75.60
46041;DHT22;31779;49.124;19.190;2022-07-23T08:33:34;32.60;76.20
46041;DHT22;31779;49.124;19.190;2022-07-23T08:36:03;32.30;73.90
46041;DHT22;31779;49.124;19.190;2022-07-23T08:38:32;31.90;74.90
46041;DHT22;31779;49.124;19.190;2022-07-23T08:41:01;34.80;68.20
46041;DHT22;31779;49.124;19.190;2022-07-23T08:43:29;38.70;60.20
46041;DHT22;31779;49.124;19.190;2022-07-23T08:45:59;40.00;57.20
46041;DHT22;31779;49.124;19.190;2022-07-23T08:48:31;40.00;50.90
46041;DHT22;31779;49.124;19.190;2022-07-23T08:51:01;40.80;50.00
46041;DHT22;31779;49.124;19.190;2022-07-23T08:53:31;42.60;47.60
46041;DHT22;31779;49.124;19.190;2022-07-23T08:56:03;43.10;46.70
46041;DHT22;31779;49.124;19.190;2022-07-23T08:58:31;42.20;45.00
46041;DHT22;31779;49.124;19.190;2022-07-23T09:01:00;42.70;44.50
46041;DHT22;31779;49.124;19.190;2022-07-23T09:03:31;43.40;42.50
46041;DHT22;31779;49.124;19.190;2022-07-23T09:06:02;46.30;40.60
46041;DHT22;31779;49.124;19.190;2022-07-23T09:08:38;44.80;42.00
46041;DHT22;31779;49.124;19.190;2022-07-23T09:11:08;45.10;40.50
46041;DHT22;31779;49.124;19.190;2022-07-23T09:16:27;41.00;46.20
46041;DHT22;31779;49.124;19.190;2022-07-23T09:18:59;41.70;41.60
46041;DHT22;31779;49.124;19.190;2022-07-23T09:21:33;43.10;40.70
46041;DHT22;31779;49.124;19.190;2022-07-23T09:24:06;42.00;41.60
46041;DHT22;31779;49.124;19.190;2022-07-23T09:26:42;39.00;44.60
46041;DHT22;31779;49.124;19.190;2022-07-23T09:31:44;40.20;43.00
46041;DHT22;31779;49.124;19.190;2022-07-23T09:34:16;40.90;42.50
46041;DHT22;31779;49.124;19.190;2022-07-23T09:36:44;40.40;45.60
46041;DHT22;31779;49.124;19.190;2022-07-23T09:39:13;40.40;41.90
46041;DHT22;31779;49.124;19.190;2022-07-23T09:41:46;40.50;39.80
46041;DHT22;31779;49.124;19.190;2022-07-23T09:44:19;38.70;46.90
46041;DHT22;31779;49.124;19.190;2022-07-23T09:46:58;40.20;44.40
46041;DHT22;31779;49.124;19.190;2022-07-23T09:49:28;39.70;49.80
46041;DHT22;31779;49.124;19.190;2022-07-23T09:51:58;40.20;43.70
46041;DHT22;31779;49.124;19.190;2022-07-23T09:54:31;39.90;47.30
46041;DHT22;31779;49.124;19.190;2022-07-23T09:57:11;39.80;42.30
46041;DHT22;31779;49.124;19.190;2022-07-23T09:59:44;39.60;41.40
46041;DHT22;31779;49.124;19.190;2022-07-23T10:02:14;37.40;43.30
46041;DHT22;31779;49.124;19.190;2022-07-23T10:05:06;37.00;45.10
46041;DHT22;31779;49.124;19.190;2022-07-23T10:07:54;38.20;46.60
46041;DHT22;31779;49.124;19.190;2022-07-23T10:10:41;39.30;43.40
46041;DHT22;31779;49.124;19.190;2022-07-23T10:13:32;38.00;44.70
46041;DHT22;31779;49.124;19.190;2022-07-23T10:16:03;37.90;44.70
46041;DHT22;31779;49.124;19.190;2022-07-23T10:18:31;38.30;43.60
46041;DHT22;31779;49.124;19.190;2022-07-23T10:21:00;37.80;45.20
46041;DHT22;31779;49.124;19.190;2022-07-23T10:23:42;37.30;48.10
46041;DHT22;31779;49.124;19.190;2022-07-23T10:26:34;37.60;43.00
46041;DHT22;31779;49.124;19.190;2022-07-23T10:31:56;38.60;47.00
46041;DHT22;31779;49.124;19.190;2022-07-23T10:34:55;38.20;42.00
46041;DHT22;31779;49.124;19.190;2022-07-23T10:37:39;37.40;42.10
46041;DHT22;31779;49.124;19.190;2022-07-23T10:40:15;37.00;42.20
46041;DHT22;31779;49.124;19.190;2022-07-23T10:42:46;36.90;41.50
46041;DHT22;31779;49.124;19.190;2022-07-23T10:50:41;36.30;45.80
46041;DHT22;31779;49.124;19.190;2022-07-23T10:53:12;36.70;44.20
46041;DHT22;31779;49.124;19.190;2022-07-23T10:55:42;36.90;41.90
46041;DHT22;31779;49.124;19.190;2022-07-23T10:58:32;36.20;43.50
46041;DHT22;31779;49.124;19.190;2022-07-23T11:01:44;36.30;45.50
46041;DHT22;31779;49.124;19.190;2022-07-23T11:04:05;36.70;45.00
46041;DHT22;31779;49.124;19.190;2022-07-23T11:15:04;35.60;48.00
46041;DHT22;31779;49.124;19.190;2022-07-23T11:18:20;36.20;44.80
46041;DHT22;31779;49.124;19.190;2022-07-23T11:20:23;35.60;43.00
46041;DHT22;31779;49.124;19.190;2022-07-23T11:22:58;35.30;44.60
46041;DHT22;31779;49.124;19.190;2022-07-23T11:28:24;35.40;45.50
46041;DHT22;31779;49.124;19.190;2022-07-23T11:30:55;35.20;44.20
46041;DHT22;31779;49.124;19.190;2022-07-23T11:33:23;35.40;45.00
46041;DHT22;31779;49.124;19.190;2022-07-23T11:36:04;35.50;47.80
46041;DHT22;31779;49.124;19.190;2022-07-23T11:38:32;35.20;45.90
46041;DHT22;31779;49.124;19.190;2022-07-23T11:41:01;35.70;46.40
46041;DHT22;31779;49.124;19.190;2022-07-23T11:43:29;36.00;46.50
46041;DHT22;31779;49.124;19.190;2022-07-23T11:45:59;36.10;44.50
46041;DHT22;31779;49.124;19.190;2022-07-23T11:48:30;35.90;43.30
46041;DHT22;31779;49.124;19.190;2022-07-23T11:51:07;35.40;44.10
46041;DHT22;31779;49.124;19.190;2022-07-23T11:53:36;35.60;46.00
46041;DHT22;31779;49.124;19.190;2022-07-23T11:56:09;36.00;45.30
46041;DHT22;31779;49.124;19.190;2022-07-23T11:58:40;36.00;44.20
46041;DHT22;31779;49.124;19.190;2022-07-23T12:01:21;35.60;46.70
46041;DHT22;31779;49.124;19.190;2022-07-23T12:03:51;35.40;44.60
46041;DHT22;31779;49.124;19.190;2022-07-23T12:06:19;34.80;46.30
46041;DHT22;31779;49.124;19.190;2022-07-23T12:08:48;34.70;46.10
46041;DHT22;31779;49.124;19.190;2022-07-23T12:11:17;34.90;48.10
46041;DHT22;31779;49.124;19.190;2022-07-23T12:13:56;35.30;45.10
46041;DHT22;31779;49.124;19.190;2022-07-23T12:16:25;35.60;44.60
46041;DHT22;31779;49.124;19.190;2022-07-23T12:18:53;35.70;45.20
46041;DHT22;31779;49.124;19.190;2022-07-23T12:21:22;35.80;48.10
46041;DHT22;31779;49.124;19.190;2022-07-23T12:23:50;36.00;47.80
46041;DHT22;31779;49.124;19.190;2022-07-23T12:26:18;35.90;45.90
46041;DHT22;31779;49.124;19.190;2022-07-23T12:28:52;35.90;44.00
46041;DHT22;31779;49.124;19.190;2022-07-23T12:31:26;35.90;44.30
46041;DHT22;31779;49.124;19.190;2022-07-23T12:33:54;35.80;44.20
46041;DHT22;31779;49.124;19.190;2022-07-23T12:36:39;35.80;45.30
46041;DHT22;31779;49.124;19.190;2022-07-23T12:39:11;36.00;44.40
46041;DHT22;31779;49.124;19.190;2022-07-23T12:41:56;36.30;44.10
46041;DHT22;31779;49.124;19.190;2022-07-23T12:44:24;36.10;42.90
46041;DHT22;31779;49.124;19.190;2022-07-23T12:46:52;35.70;45.10
46041;DHT22;31779;49.124;19.190;2022-07-23T12:49:28;36.20;43.50
46041;DHT22;31779;49.124;19.190;2022-07-23T12:51:57;36.30;44.80
46041;DHT22;31779;49.124;19.190;2022-07-23T12:54:28;36.20;44.70
46041;DHT22;31779;49.124;19.190;2022-07-23T12:56:56;35.60;44.30
46041;DHT22;31779;49.124;19.190;2022-07-23T12:59:30;35.90;46.00
46041;DHT22;31779;49.124;19.190;2022-07-23T13:01:59;36.00;43.10
46041;DHT22;31779;49.124;19.190;2022-07-23T13:04:48;35.80;44.70
46041;DHT22;31779;49.124;19.190;2022-07-23T13:07:17;36.10;44.00
46041;DHT22;31779;49.124;19.190;2022-07-23T13:09:46;36.30;42.20
46041;DHT22;31779;49.124;19.190;2022-07-23T13:12:14;36.50;43.60
46041;DHT22;31779;49.124;19.190;2022-07-23T13:14:43;36.20;43.20
46041;DHT22;31779;49.124;19.190;2022-07-23T13:17:11;36.50;43.80
46041;DHT22;31779;49.124;19.190;2022-07-23T13:19:39;36.50;43.50
46041;DHT22;31779;49.124;19.190;2022-07-23T13:22:07;36.80;43.20
46041;DHT22;31779;49.124;19.190;2022-07-23T13:24:36;36.70;42.20
46041;DHT22;31779;49.124;19.190;2022-07-23T13:27:06;36.40;41.70
46041;DHT22;31779;49.124;19.190;2022-07-23T13:29:39;36.30;40.50
46041;DHT22;31779;49.124;19.190;2022-07-23T13:32:07;36.40;40.70
46041;DHT22;31779;49.124;19.190;2022-07-23T13:34:39;35.70;42.30
46041;DHT22;31779;49.124;19.190;2022-07-23T13:37:08;35.40;42.50
46041;DHT22;31779;49.124;19.190;2022-07-23T13:39:37;34.90;42.10
46041;DHT22;31779;49.124;19.190;2022-07-23T13:42:06;34.40;42.00
46041;DHT22;31779;49.124;19.190;2022-07-23T13:44:35;33.80;43.50
46041;DHT22;31779;49.124;19.190;2022-07-23T13:47:04;33.60;43.70
46041;DHT22;31779;49.124;19.190;2022-07-23T13:49:33;33.40;42.80
46041;DHT22;31779;49.124;19.190;2022-07-23T13:52:03;33.30;43.90
46041;DHT22;31779;49.124;19.190;2022-07-23T13:54:35;33.30;45.90
46041;DHT22;31779;49.124;19.190;2022-07-23T13:57:04;33.20;45.30
46041;DHT22;31779;49.124;19.190;2022-07-23T13:59:32;32.60;46.80
46041;DHT22;31779;49.124;19.190;2022-07-23T14:02:04;32.20;45.90
46041;DHT22;31779;49.124;19.190;2022-07-23T14:04:51;32.50;46.30
46041;DHT22;31779;49.124;19.190;2022-07-23T14:07:20;32.60;46.80
46041;DHT22;31779;49.124;19.190;2022-07-23T14:09:48;32.70;46.30
46041;DHT22;31779;49.124;19.190;2022-07-23T14:12:18;33.10;46.20
46041;DHT22;31779;49.124;19.190;2022-07-23T14:14:50;32.60;47.40
46041;DHT22;31779;49.124;19.190;2022-07-23T14:17:18;33.20;48.80
46041;DHT22;31779;49.124;19.190;2022-07-23T14:19:46;33.20;46.10
46041;DHT22;31779;49.124;19.190;2022-07-23T14:22:15;33.20;48.60
46041;DHT22;31779;49.124;19.190;2022-07-23T14:24:43;33.70;48.30
46041;DHT22;31779;49.124;19.190;2022-07-23T14:27:11;34.10;45.90
46041;DHT22;31779;49.124;19.190;2022-07-23T14:29:39;34.30;46.40
46041;DHT22;31779;49.124;19.190;2022-07-23T14:32:07;34.20;45.00
46041;DHT22;31779;49.124;19.190;2022-07-23T14:34:36;33.70;47.10
46041;DHT22;31779;49.124;19.190;2022-07-23T14:37:04;33.80;45.80
46041;DHT22;31779;49.124;19.190;2022-07-23T14:39:33;33.60;46.90
46041;DHT22;31779;49.124;19.190;2022-07-23T14:42:02;33.50;48.60
46041;DHT22;31779;49.124;19.190;2022-07-23T14:44:30;33.20;47.50
46041;DHT22;31779;49.124;19.190;2022-07-23T14:47:01;32.90;48.20
46041;DHT22;31779;49.124;19.190;2022-07-23T14:49:31;32.70;46.80
46041;DHT22;31779;49.124;19.190;2022-07-23T14:52:00;32.80;48.80
46041;DHT22;31779;49.124;19.190;2022-07-23T14:54:30;32.30;48.50
46041;DHT22;31779;49.124;19.190;2022-07-23T14:57:00;32.10;48.70
46041;DHT22;31779;49.124;19.190;2022-07-23T14:59:30;31.30;50.20
46041;DHT22;31779;49.124;19.190;2022-07-23T15:01:58;31.10;52.10
46041;DHT22;31779;49.124;19.190;2022-07-23T15:04:26;31.00;51.80
46041;DHT22;31779;49.124;19.190;2022-07-23T15:07:15;31.00;53.90
46041;DHT22;31779;49.124;19.190;2022-07-23T15:09:47;30.80;52.70
46041;DHT22;31779;49.124;19.190;2022-07-23T15:12:15;30.60;53.60
46041;DHT22;31779;49.124;19.190;2022-07-23T15:14:44;30.50;53.70
46041;DHT22;31779;49.124;19.190;2022-07-23T15:17:12;30.20;52.20
46041;DHT22;31779;49.124;19.190;2022-07-23T15:19:41;29.90;53.30
46041;DHT22;31779;49.124;19.190;2022-07-23T15:22:10;29.80;50.60
46041;DHT22;31779;49.124;19.190;2022-07-23T15:24:39;29.50;51.40
46041;DHT22;31779;49.124;19.190;2022-07-23T15:27:10;29.30;52.10
46041;DHT22;31779;49.124;19.190;2022-07-23T15:29:39;29.10;52.00
46041;DHT22;31779;49.124;19.190;2022-07-23T15:32:08;28.90;52.80
46041;DHT22;31779;49.124;19.190;2022-07-23T15:34:39;28.80;52.60
46041;DHT22;31779;49.124;19.190;2022-07-23T15:37:09;28.70;54.80
46041;DHT22;31779;49.124;19.190;2022-07-23T15:39:41;28.50;54.40
46041;DHT22;31779;49.124;19.190;2022-07-23T15:42:10;28.50;55.30
46041;DHT22;31779;49.124;19.190;2022-07-23T15:44:42;28.60;55.70
46041;DHT22;31779;49.124;19.190;2022-07-23T15:47:14;28.80;58.20
46041;DHT22;31779;49.124;19.190;2022-07-23T15:49:44;28.70;66.80
46041;DHT22;31779;49.124;19.190;2022-07-23T15:52:13;28.60;68.80
46041;DHT22;31779;49.124;19.190;2022-07-23T15:54:41;28.30;70.40
46041;DHT22;31779;49.124;19.190;2022-07-23T15:57:11;27.80;75.90
46041;DHT22;31779;49.124;19.190;2022-07-23T15:59:39;27.30;72.70